Blackfoot, Texas
Current Conditions -  °F | °C
As of 12:55 AM on Thursday 27 Nov 2014 (Local Time) from KPSN Reporting Station
Clear Clear  
Wind Chill: 39°   Ceiling: Unl
Heat Index: 42°   Visibility: 10mi
Dew Point: 38°   Wind: 6mph
Humidity: 83%   Direction: 350°N
Pressure: 30.39"   Gusts: NA
Location:  31.935°N, 95.7672°W
Report Text: KPSN 270655Z AUTO 35005KT 10SM CLR 05/03 A3039 RMK AO2 T00570031
Loading
Personal Weather Stations






























Interactive Weather Map New forecast layout! Learn more

10-Day Weather Forecast

Advertisements
Track Severe Weather on mobile